Time;durP1;ratioP1;P1;durP2;ratioP2;P2;SDS_P1;SDS_P2;PMS_P1;PMS_P2;Temp;Humidity;BMP_temperature;BMP_pressure;BME280_temperature;BME280_humidity;BME280_pressure;Samples;Min_cycle;Max_cycle;Signal;HPM_P1;HPM_P2
2022/12/26 00:00:20;;;;;;;14.50;7.70;;;;;;;7.55;80.62;100834.84;5050556;28;20048;-72
2022/12/26 00:02:45;;;;;;;11.32;7.15;;;;;;;7.63;80.18;100836.91;5051770;28;20048;-72
2022/12/26 00:05:11;;;;;;;24.88;10.23;;;;;;;7.69;80.78;100845.19;5050475;28;20049;-72
2022/12/26 00:07:36;;;;;;;14.48;8.50;;;;;;;7.72;80.40;100853.81;5050968;28;20104;-73
2022/12/26 00:10:02;;;;;;;13.00;8.05;;;;;;;7.78;79.87;100863.91;5049412;28;20036;-72
2022/12/26 00:12:27;;;;;;;13.20;6.93;;;;;;;7.51;79.99;100865.03;5051884;28;20096;-72
2022/12/26 00:14:53;;;;;;;12.45;7.30;;;;;;;7.51;79.69;100870.31;5050077;28;20289;-72
2022/12/26 00:17:18;;;;;;;11.25;6.90;;;;;;;7.52;79.54;100876.41;5051451;28;20047;-72
2022/12/26 00:19:44;;;;;;;9.88;6.10;;;;;;;7.52;79.46;100889.59;5049421;28;20037;-73
2022/12/26 00:22:09;;;;;;;9.45;6.35;;;;;;;7.50;78.99;100883.59;5052032;28;20119;-72
2022/12/26 00:24:34;;;;;;;10.63;5.90;;;;;;;7.28;79.80;100884.31;5051163;28;20033;-73
2022/12/26 00:27:00;;;;;;;11.90;7.10;;;;;;;7.27;80.01;100875.56;5050362;28;20052;-72
2022/12/26 00:29:25;;;;;;;9.73;6.53;;;;;;;7.33;80.26;100884.84;5054012;28;20330;-72
2022/12/26 00:31:51;;;;;;;10.88;6.22;;;;;;;7.40;80.08;100886.06;5054415;28;20199;-73
2022/12/26 00:34:16;;;;;;;9.10;5.95;;;;;;;6.94;79.27;100886.78;5055080;28;20446;-73
2022/12/26 00:36:42;;;;;;;11.30;6.32;;;;;;;6.58;80.36;100894.69;5053582;28;20052;-72
2022/12/26 00:39:07;;;;;;;12.98;6.85;;;;;;;6.56;80.21;100892.16;5055059;28;20029;-71
2022/12/26 00:41:33;;;;;;;11.23;6.38;;;;;;;6.69;80.61;100900.88;5053500;28;20044;-72
2022/12/26 00:43:58;;;;;;;11.65;8.27;;;;;;;6.58;81.90;100889.41;5053143;28;20037;-72
2022/12/26 00:46:25;;;;;;;13.70;8.00;;;;;;;7.00;80.07;100890.78;5051686;28;20055;-73
2022/12/26 00:48:51;;;;;;;11.27;6.63;;;;;;;7.11;79.09;100892.63;5054232;28;20044;-73
2022/12/26 00:51:17;;;;;;;9.90;5.72;;;;;;;7.13;78.27;100880.19;5054735;28;20041;-73
2022/12/26 00:53:42;;;;;;;10.02;6.07;;;;;;;7.22;78.65;100885.63;5054005;28;20334;-72
2022/12/26 00:56:08;;;;;;;8.60;5.72;;;;;;;7.31;77.74;100886.75;5054265;28;20113;-72
2022/12/26 00:58:33;;;;;;;8.35;5.50;;;;;;;7.32;76.78;100893.72;5051165;28;20192;-73
2022/12/26 01:01:15;;;;;;;9.57;4.95;;;;;;;6.92;77.50;100895.75;5054769;28;20045;-71
2022/12/26 01:03:42;;;;;;;6.90;4.70;;;;;;;6.75;78.56;100885.59;5054369;28;20040;-72
2022/12/26 01:06:08;;;;;;;9.23;5.00;;;;;;;6.92;78.44;100888.69;5053810;28;20096;-72
2022/12/26 01:08:33;;;;;;;8.02;5.70;;;;;;;7.04;77.63;100876.44;5054564;28;20029;-73
2022/12/26 01:11:07;;;;;;;18.73;9.60;;;;;;;7.18;77.13;100876.25;5053021;28;20289;-72
2022/12/26 01:13:33;;;;;;;8.90;5.78;;;;;;;7.32;76.47;100881.38;5051988;28;20384;-73
2022/12/26 01:15:58;;;;;;;10.68;5.65;;;;;;;7.52;76.18;100884.31;5053663;28;20053;-72
2022/12/26 01:18:24;;;;;;;8.77;4.95;;;;;;;7.66;75.15;100884.97;5054144;28;20059;-73
2022/12/26 01:20:49;;;;;;;8.48;5.25;;;;;;;7.77;74.14;100894.69;5054683;28;20032;-72
2022/12/26 01:23:16;;;;;;;6.75;4.53;;;;;;;7.80;74.26;100891.84;5053204;28;20037;-72
2022/12/26 01:25:42;;;;;;;7.72;4.55;;;;;;;7.69;73.88;100902.34;5053774;28;20075;-72
2022/12/26 01:28:07;;;;;;;37.15;13.43;;;;;;;7.76;73.81;100897.47;5052316;28;20029;-72
2022/12/26 01:30:33;;;;;;;10.40;5.65;;;;;;;7.79;73.34;100907.78;5052811;28;20041;-72
2022/12/26 01:32:58;;;;;;;8.40;5.45;;;;;;;7.78;73.57;100909.56;5053202;28;20033;-72
2022/12/26 01:35:24;;;;;;;14.60;6.88;;;;;;;7.70;74.52;100901.41;5052907;28;20091;-73
2022/12/26 01:37:49;;;;;;;30.17;17.75;;;;;;;7.75;73.57;100906.31;5054034;28;20055;-71
2022/12/26 01:40:14;;;;;;;20.50;9.98;;;;;;;7.70;74.24;100909.31;5051480;28;20075;-72
2022/12/26 01:42:40;;;;;;;12.32;7.47;;;;;;;7.80;74.10;100901.53;5053830;28;20094;-73
2022/12/26 01:45:06;;;;;;;9.52;5.93;;;;;;;7.93;73.07;100905.78;5051768;28;20319;-73
2022/12/26 01:47:45;;;;;;;15.93;8.05;;;;;;;7.97;72.61;100901.09;5054210;28;20422;-73
2022/12/26 01:50:25;;;;;;;9.63;6.35;;;;;;;7.98;72.62;100900.97;5054015;28;20033;-72
2022/12/26 01:52:51;;;;;;;11.10;5.80;;;;;;;7.90;72.21;100894.63;5053174;28;20045;-71
2022/12/26 01:55:20;;;;;;;13.57;8.27;;;;;;;7.65;73.54;100903.53;5051932;28;20036;-72
2022/12/26 01:57:52;;;;;;;16.20;9.32;;;;;;;7.33;74.70;100906.78;5053160;28;20283;-72
2022/12/26 02:00:18;;;;;;;16.20;9.98;;;;;;;7.25;75.19;100918.78;5051507;28;20509;-72
2022/12/26 02:05:33;;;;;;;17.65;9.52;;;;;;;7.40;75.37;100911.59;5051484;28;20043;-73
2022/12/26 02:08:19;;;;;;;17.08;9.75;;;;;;;7.32;75.43;100904.25;5052951;28;20041;-72
2022/12/26 02:11:14;;;;;;;18.13;10.23;;;;;;;7.31;75.73;100913.94;5052614;28;20349;-72
2022/12/26 02:13:40;;;;;;;14.80;8.90;;;;;;;7.15;76.36;100910.72;5051789;28;20263;-73
2022/12/26 02:16:07;;;;;;;15.95;7.97;;;;;;;6.99;77.12;100907.53;5051782;28;20628;-73
2022/12/26 02:18:33;;;;;;;16.33;9.55;;;;;;;7.02;77.53;100907.28;5051214;28;20084;-72
2022/12/26 02:21:20;;;;;;;17.05;9.20;;;;;;;6.93;77.79;100914.06;5051978;28;20274;-71
2022/12/26 02:23:48;;;;;;;18.05;9.50;;;;;;;6.90;78.92;100918.72;5053229;28;20048;-72
2022/12/26 02:26:45;;;;;;;17.88;9.60;;;;;;;6.99;78.36;100920.69;5051033;28;20079;-72
2022/12/26 02:29:48;;;;;;;15.60;8.23;;;;;;;7.22;78.32;100926.91;5051484;28;20246;-72
2022/12/26 02:32:55;;;;;;;12.82;7.70;;;;;;;7.37;78.17;100931.09;5049737;28;20040;-72
2022/12/26 02:35:44;;;;;;;16.95;8.10;;;;;;;7.45;77.23;100918.19;5051352;28;20115;-72
2022/12/26 02:38:25;;;;;;;15.52;7.90;;;;;;;7.57;77.16;100912.03;5050903;28;20102;-73
2022/12/26 02:41:02;;;;;;;15.00;8.68;;;;;;;7.65;76.92;100911.44;5049629;28;20036;-73
2022/12/26 02:43:31;;;;;;;17.48;8.75;;;;;;;7.65;76.29;100914.94;5052528;28;20054;-72
2022/12/26 03:13:12;;;;;;;15.50;8.93;;;;;;;6.76;77.34;100910.97;5051950;28;20241;-73
2022/12/26 03:18:55;;;;;;;11.30;6.80;;;;;;;6.78;75.95;100904.63;5050928;28;20040;-71
2022/12/26 03:21:25;;;;;;;19.55;10.82;;;;;;;6.69;76.78;100906.13;5048749;28;20043;-72
2022/12/26 03:23:52;;;;;;;63.65;21.70;;;;;;;6.90;76.17;100911.66;5050455;28;20040;-72
2022/12/26 03:26:39;;;;;;;67.43;26.50;;;;;;;6.96;75.84;100905.94;5051078;28;20028;-72
2022/12/26 03:31:53;;;;;;;15.73;8.93;;;;;;;7.17;74.95;100910.59;5049475;28;20230;-73
2022/12/26 03:34:19;;;;;;;10.25;6.70;;;;;;;7.11;74.94;100900.53;5051816;28;20033;-72
2022/12/26 03:37:10;;;;;;;12.20;7.00;;;;;;;6.50;75.93;100905.75;5051376;28;20033;-71
2022/12/26 04:20:59;;;;;;;6.78;4.28;;;;;;;5.72;77.76;100947.00;5011432;28;20049;-70
2022/12/26 04:46:14;;;;;;;64.38;23.02;;;;;;;5.67;81.58;100957.81;5052603;28;20374;-70
2022/12/26 04:51:31;;;;;;;71.68;26.88;;;;;;;6.08;81.11;100959.50;5053281;28;20074;-72
2022/12/26 04:53:56;;;;;;;28.38;13.35;;;;;;;6.24;79.15;100962.81;5053647;28;20060;-72
2022/12/26 04:56:22;;;;;;;20.90;11.73;;;;;;;5.87;80.30;100976.69;5052965;28;20040;-72
2022/12/26 04:58:47;;;;;;;22.92;12.20;;;;;;;5.82;80.46;100971.72;5054230;28;20338;-72
2022/12/26 05:09:34;;;;;;;17.65;10.80;;;;;;;5.70;77.16;100977.78;5052404;28;20236;-72
2022/12/26 05:12:05;;;;;;;10.93;7.97;;;;;;;5.42;78.22;100979.59;5053227;28;20040;-73
2022/12/26 05:14:34;;;;;;;16.40;8.60;;;;;;;5.49;77.84;100981.81;5053283;28;20033;-70
2022/12/26 05:28:41;;;;;;;30.90;13.02;;;;;;;5.34;78.96;100994.16;5051326;28;20126;-69
2022/12/26 05:31:13;;;;;;;18.70;8.57;;;;;;;5.34;79.40;100999.41;5053793;28;20191;-71
2022/12/26 05:36:26;;;;;;;14.30;9.20;;;;;;;5.33;80.43;100987.22;5051613;28;20109;-71
2022/12/26 05:38:52;;;;;;;14.00;8.63;;;;;;;5.55;78.98;100984.06;5051522;28;20040;-72
2022/12/26 05:41:17;;;;;;;16.73;8.05;;;;;;;5.73;77.18;100982.84;5054032;28;20360;-71
2022/12/26 05:43:42;;;;;;;15.10;9.77;;;;;;;5.78;76.44;100986.00;5052821;28;20063;-72
2022/12/26 05:46:08;;;;;;;17.38;11.20;;;;;;;5.73;75.83;100988.94;5053249;28;20031;-72
2022/12/26 05:48:33;;;;;;;18.08;11.77;;;;;;;5.91;75.86;100989.53;5052012;28;20091;-72
2022/12/26 05:51:00;;;;;;;17.95;12.57;;;;;;;6.06;76.04;100996.41;5052459;28;20095;-71
2022/12/26 05:53:27;;;;;;;18.52;11.98;;;;;;;6.14;74.76;100990.63;5051643;28;20041;-72
2022/12/26 05:55:52;;;;;;;18.88;13.65;;;;;;;5.76;75.13;100990.53;5052276;28;20277;-70
2022/12/26 05:58:18;;;;;;;17.60;11.30;;;;;;;5.42;76.97;100994.50;5052633;28;20057;-70
2022/12/26 06:00:43;;;;;;;19.45;13.10;;;;;;;5.24;77.81;101003.56;5052551;28;20048;-69
2022/12/26 06:03:09;;;;;;;21.52;14.20;;;;;;;5.00;78.70;101004.13;5050667;28;20037;-70
2022/12/26 06:05:34;;;;;;;34.90;20.15;;;;;;;5.03;79.49;100998.69;5051613;28;20243;-69
2022/12/26 06:08:00;;;;;;;26.63;16.33;;;;;;;4.96;80.31;101007.06;5053870;28;20098;-70
2022/12/26 06:10:28;;;;;;;21.85;13.88;;;;;;;4.93;80.55;101013.34;5051405;28;20090;-69
2022/12/26 06:12:53;;;;;;;40.45;25.70;;;;;;;4.98;80.99;101011.25;5053397;28;20049;-71
2022/12/26 06:15:19;;;;;;;28.10;18.10;;;;;;;5.14;80.92;101013.78;5049992;28;20204;-71
2022/12/26 06:17:44;;;;;;;18.85;13.93;;;;;;;5.42;80.70;101008.47;5053485;28;20063;-71
2022/12/26 06:20:10;;;;;;;17.10;10.85;;;;;;;5.67;79.11;101009.53;5051248;28;20045;-72
2022/12/26 06:22:35;;;;;;;16.23;11.05;;;;;;;5.82;77.97;101016.41;5052469;28;20036;-72
2022/12/26 06:25:01;;;;;;;16.95;11.80;;;;;;;5.88;78.32;101018.63;5052247;28;20307;-72
2022/12/26 06:27:27;;;;;;;21.02;13.68;;;;;;;5.92;77.58;101006.16;5051621;28;20330;-71
2022/12/26 06:29:52;;;;;;;16.95;11.10;;;;;;;6.09;77.97;101019.03;5052276;28;20049;-72
2022/12/26 06:32:18;;;;;;;18.25;11.57;;;;;;;6.18;77.74;101021.03;5050341;28;20059;-72
2022/12/26 06:34:43;;;;;;;30.60;19.75;;;;;;;6.25;77.11;101021.50;5050170;28;20045;-71
2022/12/26 06:37:09;;;;;;;29.98;18.80;;;;;;;6.32;76.57;101015.72;5051402;28;20049;-71
2022/12/26 06:39:34;;;;;;;25.73;15.73;;;;;;;6.40;76.02;101026.56;5035044;28;20044;-72
2022/12/26 06:41:59;;;;;;;26.30;16.10;;;;;;;6.48;76.70;101027.84;5051554;28;20040;-71
2022/12/26 06:44:25;;;;;;;28.10;17.48;;;;;;;6.51;76.17;101022.38;5052157;28;20051;-72
2022/12/26 06:46:50;;;;;;;36.13;19.27;;;;;;;6.66;76.62;101031.84;5051057;28;20044;-71
2022/12/26 06:49:16;;;;;;;31.95;18.13;;;;;;;6.80;75.54;101044.06;5049743;28;20269;-72
2022/12/26 06:51:43;;;;;;;34.75;20.33;;;;;;;6.92;75.18;101037.94;5050453;28;20029;-72
2022/12/26 06:54:09;;;;;;;37.58;22.40;;;;;;;7.02;75.42;101041.59;5049173;28;20037;-72
2022/12/26 06:56:35;;;;;;;43.85;22.85;;;;;;;7.10;75.30;101043.69;5052389;28;20078;-72
2022/12/26 06:59:03;;;;;;;34.70;21.52;;;;;;;7.09;75.53;101029.69;5050461;28;20037;-72
2022/12/26 07:01:31;;;;;;;33.83;21.15;;;;;;;7.10;75.26;101038.44;5050662;28;20354;-72
2022/12/26 07:03:57;;;;;;;38.00;24.80;;;;;;;7.04;75.72;101035.28;5052091;28;20072;-72
2022/12/26 07:06:27;;;;;;;38.70;26.13;;;;;;;7.12;75.85;101029.47;5050443;28;20342;-72
2022/12/26 07:08:57;;;;;;;38.33;27.02;;;;;;;7.10;76.18;101041.06;5051609;28;20354;-71
2022/12/26 07:11:26;;;;;;;31.95;19.73;;;;;;;7.01;76.29;101043.41;5051636;28;20032;-71
2022/12/26 07:13:53;;;;;;;20.35;12.68;;;;;;;6.85;77.14;101036.69;5048919;28;20048;-71
2022/12/26 07:16:18;;;;;;;15.25;10.15;;;;;;;6.74;77.28;101042.69;5051092;28;20048;-71
2022/12/26 07:18:44;;;;;;;26.00;14.30;;;;;;;6.74;78.37;101053.22;5050983;28;20090;-70
2022/12/26 07:21:12;;;;;;;24.48;11.93;;;;;;;6.95;77.47;101046.47;5048644;28;20343;-72
2022/12/26 07:23:38;;;;;;;37.38;19.60;;;;;;;7.21;76.84;101049.88;5050940;28;20107;-72
2022/12/26 07:26:03;;;;;;;27.50;16.77;;;;;;;7.49;76.31;101056.69;5051866;28;20052;-72
2022/12/26 07:28:29;;;;;;;25.88;16.30;;;;;;;7.54;76.01;101045.81;5052106;28;20368;-71
2022/12/26 07:30:56;;;;;;;27.42;15.18;;;;;;;7.67;75.49;101044.81;5048673;28;20045;-71
2022/12/26 07:33:22;;;;;;;27.10;16.98;;;;;;;7.94;74.62;101067.50;5051943;28;20033;-72
2022/12/26 07:35:47;;;;;;;35.05;21.27;;;;;;;8.01;74.27;101071.34;5049437;28;20048;-71
2022/12/26 07:38:13;;;;;;;34.22;21.90;;;;;;;8.19;74.17;101067.34;5054078;28;20037;-72
2022/12/26 07:40:39;;;;;;;21.83;14.05;;;;;;;8.38;73.99;101063.41;5053378;28;20736;-70
2022/12/26 07:43:05;;;;;;;15.27;11.25;;;;;;;8.49;73.77;101066.91;5054060;28;20052;-70
2022/12/26 07:45:30;;;;;;;15.68;9.70;;;;;;;8.54;73.55;101058.63;5052771;28;20041;-70
2022/12/26 07:47:57;;;;;;;16.15;9.60;;;;;;;8.59;72.38;101051.22;5057739;28;20039;-69
2022/12/26 07:50:24;;;;;;;23.63;11.20;;;;;;;8.69;72.29;101060.09;5056497;28;20025;-70
2022/12/26 07:52:49;;;;;;;12.52;8.88;;;;;;;8.76;72.91;101063.13;5054636;28;20025;-69
2022/12/26 07:55:15;;;;;;;15.48;9.23;;;;;;;8.90;72.75;101079.56;5055196;28;20278;-70
2022/12/26 07:57:40;;;;;;;14.60;9.43;;;;;;;9.00;72.65;101076.22;5053733;28;20033;-70
2022/12/26 08:00:07;;;;;;;15.50;10.80;;;;;;;9.06;73.19;101083.66;5057109;28;20044;-70
2022/12/26 08:02:32;;;;;;;18.23;10.27;;;;;;;9.02;73.12;101084.88;5054566;28;20041;-70
2022/12/26 08:04:58;;;;;;;18.77;11.73;;;;;;;8.95;73.20;101080.06;5052607;28;20033;-70
2022/12/26 08:07:23;;;;;;;27.67;14.32;;;;;;;8.98;73.82;101084.25;5055718;28;20312;-70
2022/12/26 08:09:48;;;;;;;17.90;10.35;;;;;;;9.04;73.69;101090.88;5052424;28;20029;-71
2022/12/26 08:12:14;;;;;;;18.38;10.15;;;;;;;9.20;73.29;101083.44;5054151;28;20331;-69
2022/12/26 08:14:40;;;;;;;16.98;11.90;;;;;;;9.13;73.80;101083.06;5053896;28;20067;-70
2022/12/26 08:17:06;;;;;;;15.90;11.10;;;;;;;9.01;74.43;101070.81;5056209;28;20135;-72
2022/12/26 08:19:32;;;;;;;19.52;13.02;;;;;;;8.62;76.49;101072.09;5053435;28;20330;-70
2022/12/26 08:21:57;;;;;;;19.73;12.07;;;;;;;8.71;75.87;101079.31;5038115;28;20037;-68
2022/12/26 08:24:23;;;;;;;20.00;12.57;;;;;;;8.91;75.87;101070.69;5054355;28;20384;-69
2022/12/26 08:26:48;;;;;;;20.38;13.05;;;;;;;9.08;75.66;101076.47;5053902;28;20056;-70
2022/12/26 08:29:14;;;;;;;21.55;13.13;;;;;;;9.13;75.08;101069.00;5055264;28;20235;-72
2022/12/26 08:31:39;;;;;;;22.92;12.05;;;;;;;9.06;76.02;101073.09;5053975;28;20025;-70
2022/12/26 08:34:05;;;;;;;17.73;11.65;;;;;;;8.62;77.90;101069.44;5053658;28;20025;-72
2022/12/26 08:36:30;;;;;;;19.00;12.45;;;;;;;8.54;78.63;101070.03;5053345;28;20100;-70
2022/12/26 08:38:57;;;;;;;23.85;14.07;;;;;;;8.87;77.61;101065.75;5054752;28;20557;-70
2022/12/26 08:41:23;;;;;;;29.45;17.95;;;;;;;9.07;76.75;101066.84;5053105;28;20055;-68
2022/12/26 08:43:50;;;;;;;26.20;16.95;;;;;;;9.28;76.37;101067.81;5055147;28;20049;-69
2022/12/26 08:46:16;;;;;;;25.92;15.73;;;;;;;9.42;77.26;101064.09;5054964;28;20443;-70
2022/12/26 08:48:42;;;;;;;25.63;16.20;;;;;;;9.16;77.74;101056.41;5052896;28;20052;-68
2022/12/26 08:51:12;;;;;;;24.52;15.07;;;;;;;9.14;77.71;101062.75;5054378;28;20047;-71
2022/12/26 08:53:38;;;;;;;23.27;15.68;;;;;;;8.99;78.46;101056.03;5053300;28;20033;-69
2022/12/26 08:56:05;;;;;;;21.88;15.00;;;;;;;9.04;78.63;101051.25;5052429;28;20041;-69
2022/12/26 08:58:32;;;;;;;24.60;15.23;;;;;;;8.99;78.41;101046.31;5053703;28;20052;-69
2022/12/26 09:01:15;;;;;;;23.27;15.88;;;;;;;9.09;78.64;101055.19;5052335;28;20343;-69
2022/12/26 09:03:41;;;;;;;23.05;14.73;;;;;;;9.21;78.46;101056.03;5052280;28;20047;-70
2022/12/26 09:06:07;;;;;;;20.23;14.32;;;;;;;9.22;78.65;101040.06;5054046;28;20029;-68
2022/12/26 09:08:34;;;;;;;20.35;14.02;;;;;;;9.43;77.97;101039.34;5053253;28;20043;-69
2022/12/26 09:11:11;;;;;;;18.23;12.35;;;;;;;9.58;77.43;101030.16;5054443;28;20200;-70
2022/12/26 09:13:37;;;;;;;13.73;10.20;;;;;;;9.40;77.03;101032.50;5053008;28;20061;-69
2022/12/26 09:16:13;;;;;;;15.20;10.30;;;;;;;9.31;78.12;101025.28;5051789;28;20033;-69
2022/12/26 09:18:38;;;;;;;14.60;11.30;;;;;;;9.46;77.60;101025.88;5052353;28;20311;-68
2022/12/26 09:21:07;;;;;;;15.35;11.23;;;;;;;9.33;79.21;101017.22;5057672;28;20045;-69
2022/12/26 09:23:34;;;;;;;17.80;12.45;;;;;;;9.23;79.16;101007.38;5058774;28;20033;-69
2022/12/26 09:26:11;;;;;;;19.88;11.95;;;;;;;9.19;79.79;101007.75;5058459;28;20392;-69
2022/12/26 09:28:37;;;;;;;14.07;9.75;;;;;;;9.02;80.13;101000.31;5058362;28;20339;-69
2022/12/26 09:31:09;;;;;;;12.85;9.20;;;;;;;8.86;80.82;101004.16;5058816;28;20033;-68
2022/12/26 09:33:37;;;;;;;16.20;10.60;;;;;;;9.13;80.85;100993.22;5058224;28;20049;-68
2022/12/26 09:36:24;;;;;;;15.35;11.32;;;;;;;9.30;79.41;100991.88;5057973;28;20100;-71
2022/12/26 09:38:51;;;;;;;17.80;11.55;;;;;;;9.19;80.02;100997.19;5058421;28;20064;-70
2022/12/26 09:41:28;;;;;;;17.00;11.10;;;;;;;9.32;79.72;100992.59;5057583;28;20037;-69
2022/12/26 09:44:26;;;;;;;16.92;11.55;;;;;;;9.38;79.21;100989.47;5058360;28;20085;-70
2022/12/26 09:47:15;;;;;;;15.85;11.30;;;;;;;9.50;78.87;100988.47;5058220;28;20354;-69
2022/12/26 09:49:44;;;;;;;19.30;11.68;;;;;;;9.46;80.28;100979.13;5056417;28;20052;-70
2022/12/26 09:52:14;;;;;;;16.70;11.45;;;;;;;9.64;78.23;100975.94;5058637;28;20265;-70
2022/12/26 09:54:53;;;;;;;19.42;13.00;;;;;;;9.74;78.07;100975.06;5058043;28;20040;-69
2022/12/26 09:57:48;;;;;;;20.58;13.40;;;;;;;9.55;79.70;100973.09;5057692;28;20310;-69
2022/12/26 10:00:23;;;;;;;;;;;;;;;9.83;78.69;100971.66;5054302;28;20072;-69
2022/12/26 10:02:53;;;;;;;16.00;11.20;;;;;;;9.99;76.95;100973.84;5057665;28;19924;-70
2022/12/26 10:05:22;;;;;;;25.83;18.33;;;;;;;10.06;77.93;100971.53;5057847;28;20333;-70
2022/12/26 10:07:57;;;;;;;29.10;17.27;;;;;;;10.05;77.72;100965.41;5058419;28;20212;-70
2022/12/26 10:10:28;;;;;;;33.60;22.00;;;;;;;10.02;78.20;100972.75;5057526;28;20419;-69
2022/12/26 10:13:10;;;;;;;30.55;20.20;;;;;;;10.00;79.69;100964.94;5058167;28;20265;-69
2022/12/26 10:15:54;;;;;;;30.55;18.58;;;;;;;10.00;79.89;100962.31;5058347;28;20104;-70
2022/12/26 10:18:25;;;;;;;25.25;16.92;;;;;;;9.92;79.68;100956.81;5056813;28;20040;-69
2022/12/26 10:21:32;;;;;;;22.58;15.52;;;;;;;10.01;80.03;100949.91;5057789;28;20350;-69
2022/12/26 10:24:04;;;;;;;22.50;15.45;;;;;;;10.23;78.03;100953.28;5057818;28;20199;-72
2022/12/26 10:26:38;;;;;;;14.73;10.07;;;;;;;10.25;78.32;100950.50;5062698;28;20311;-70
2022/12/26 10:29:06;;;;;;;15.25;9.20;;;;;;;10.34;76.54;100944.44;5059776;28;20487;-69
2022/12/26 10:31:48;;;;;;;12.25;8.05;;;;;;;10.40;76.47;100948.38;5056950;28;20059;-70
2022/12/26 10:34:23;;;;;;;13.80;8.02;;;;;;;10.43;77.16;100935.72;5056798;28;20036;-71
2022/12/26 10:37:00;;;;;;;13.65;8.07;;;;;;;10.43;75.97;100929.59;5057119;28;20059;-69
2022/12/26 10:39:35;;;;;;;10.95;7.60;;;;;;;10.33;75.26;100916.28;5055569;28;20292;-70
2022/12/26 10:42:10;;;;;;;12.63;7.97;;;;;;;10.09;76.20;100919.19;5056913;28;20048;-70
2022/12/26 10:44:38;;;;;;;11.73;7.63;;;;;;;10.14;75.75;100916.97;5055457;28;20358;-72
2022/12/26 10:47:22;;;;;;;10.30;7.38;;;;;;;10.32;76.04;100917.25;5056090;28;20116;-73
2022/12/26 10:49:48;;;;;;;8.23;5.70;;;;;;;10.38;75.20;100907.94;5056683;28;20039;-72
2022/12/26 10:52:16;;;;;;;9.52;5.63;;;;;;;10.16;74.19;100901.81;5057055;28;20096;-72
2022/12/26 10:54:41;;;;;;;9.50;5.43;;;;;;;10.32;74.11;100898.72;5056096;28;20108;-72
2022/12/26 10:57:07;;;;;;;11.23;7.63;;;;;;;10.40;73.65;100895.41;5055334;28;20052;-72
2022/12/26 10:59:44;;;;;;;12.07;7.60;;;;;;;10.36;74.95;100896.66;5056164;28;20037;-71
2022/12/26 11:02:15;;;;;;;10.20;6.75;;;;;;;10.41;74.48;100897.97;5056952;28;20052;-71
2022/12/26 11:05:00;;;;;;;10.13;6.88;;;;;;;10.50;74.25;100898.97;5056203;28;20401;-72
2022/12/26 11:07:29;;;;;;;9.23;6.40;;;;;;;10.36;74.09;100883.41;5056781;28;20036;-72
2022/12/26 11:09:58;;;;;;;9.32;6.60;;;;;;;10.38;75.72;100879.66;5058432;28;20055;-70
2022/12/26 11:12:48;;;;;;;12.80;7.32;;;;;;;10.58;75.26;100888.53;5056412;28;20263;-72
2022/12/26 11:15:39;;;;;;;9.95;6.88;;;;;;;10.52;75.35;100886.44;5055411;28;20136;-71
2022/12/26 11:18:30;;;;;;;12.40;7.43;;;;;;;10.65;74.50;100881.72;5044329;28;20056;-72
2022/12/26 11:21:11;;;;;;;12.38;6.78;;;;;;;10.59;74.50;100887.56;5056147;28;20040;-71
2022/12/26 11:23:36;;;;;;;11.65;7.75;;;;;;;10.66;75.17;100878.13;5056143;28;20201;-72
2022/12/26 11:26:16;;;;;;;12.13;7.45;;;;;;;10.67;75.36;100878.94;5055611;28;20124;-72
2022/12/26 11:28:41;;;;;;;8.95;6.63;;;;;;;10.71;74.37;100873.25;5055832;28;20258;-71
2022/12/26 11:31:30;;;;;;;8.98;6.43;;;;;;;10.72;73.60;100868.78;5056427;28;20058;-72
2022/12/26 11:33:55;;;;;;;10.40;6.57;;;;;;;10.67;74.29;100863.91;5055480;28;20451;-72
2022/12/26 11:36:24;;;;;;;8.35;6.22;;;;;;;10.68;73.38;100864.72;5055600;28;20060;-71
2022/12/26 11:38:56;;;;;;;10.55;6.43;;;;;;;10.82;72.96;100856.41;5057223;28;20029;-71
2022/12/26 11:41:30;;;;;;;8.07;6.22;;;;;;;11.00;71.58;100862.69;5057559;28;20075;-72
2022/12/26 11:44:22;;;;;;;9.40;5.53;;;;;;;10.85;71.83;100856.97;5057110;28;20269;-71
2022/12/26 11:46:55;;;;;;;8.25;5.13;;;;;;;10.95;70.49;100856.97;5057934;28;20140;-72
2022/12/26 11:49:23;;;;;;;11.02;6.53;;;;;;;11.05;70.29;100865.78;5057635;28;20377;-73
2022/12/26 11:51:50;;;;;;;9.95;6.18;;;;;;;11.10;69.85;100875.97;5057225;28;20223;-71
2022/12/26 11:54:16;;;;;;;12.40;7.38;;;;;;;11.14;70.06;100859.66;5057333;28;20060;-72
2022/12/26 11:56:41;;;;;;;14.95;7.90;;;;;;;11.30;70.28;100860.91;5057167;28;20327;-72
2022/12/26 11:59:18;;;;;;;11.10;7.85;;;;;;;11.34;70.31;100855.19;5057368;28;20033;-71
2022/12/26 12:01:44;;;;;;;11.68;7.53;;;;;;;11.29;70.79;100846.81;5057295;28;20087;-71
2022/12/26 12:04:10;;;;;;;11.82;8.05;;;;;;;11.35;71.15;100848.06;5056970;28;20357;-72
2022/12/26 12:07:16;;;;;;;14.43;7.70;;;;;;;11.26;71.55;100851.56;5057344;28;20040;-71
2022/12/26 12:09:58;;;;;;;11.07;7.90;;;;;;;11.16;74.44;100843.59;4994936;28;20069;-71
2022/12/26 12:12:33;;;;;;;13.13;8.70;;;;;;;11.23;70.94;100843.88;5057125;28;20051;-72
2022/12/26 12:15:19;;;;;;;12.70;8.00;;;;;;;11.19;71.26;100848.63;5057225;28;20280;-72
2022/12/26 12:18:11;;;;;;;7.65;4.80;;;;;;;10.98;71.32;100837.31;5055783;28;20048;-72
2022/12/26 12:21:00;;;;;;;7.80;4.53;;;;;;;10.78;71.96;100837.28;4990475;28;20390;-72
2022/12/26 12:23:51;;;;;;;6.50;4.35;;;;;;;10.80;72.27;100835.34;5039433;28;20082;-72
2022/12/26 12:26:34;;;;;;;7.97;4.35;;;;;;;10.72;72.70;100823.75;5040149;28;20037;-71
2022/12/26 12:29:26;;;;;;;10.98;5.63;;;;;;;10.88;72.61;100832.84;5039431;28;20045;-72
2022/12/26 12:32:05;;;;;;;6.07;4.75;;;;;;;11.04;72.05;100827.00;5040377;28;20045;-71
2022/12/26 12:34:52;;;;;;;5.90;4.20;;;;;;;10.98;72.06;100829.38;5040206;28;20156;-71
2022/12/26 12:37:58;;;;;;;6.93;4.40;;;;;;;11.16;71.17;100841.78;5040635;28;20061;-72
2022/12/26 12:40:52;;;;;;;7.28;4.50;;;;;;;11.21;70.29;100844.03;5039481;28;20116;-72
2022/12/26 12:43:23;;;;;;;9.65;5.43;;;;;;;11.20;71.97;100837.88;5039605;28;20040;-72
2022/12/26 12:46:08;;;;;;;6.65;4.90;;;;;;;11.17;71.64;100832.88;5041741;28;20037;-72
2022/12/26 12:48:39;;;;;;;6.57;5.00;;;;;;;11.28;71.26;100837.19;5040912;28;20512;-72
2022/12/26 12:51:27;;;;;;;7.15;4.47;;;;;;;11.21;71.84;100838.72;5041733;28;20234;-71
2022/12/26 12:54:28;;;;;;;8.07;5.07;;;;;;;11.38;70.64;100832.72;5041095;28;20037;-71
2022/12/26 12:57:31;;;;;;;8.73;5.95;;;;;;;11.23;71.52;100841.22;5029284;28;20053;-72
2022/12/26 13:00:28;;;;;;;7.35;5.25;;;;;;;11.25;72.39;100834.81;5040789;28;20098;-72
2022/12/26 13:03:36;;;;;;;7.90;5.47;;;;;;;11.45;71.43;100838.31;5005890;28;20286;-72
2022/12/26 13:06:10;;;;;;;9.30;5.75;;;;;;;11.57;71.45;100836.34;5041668;28;20308;-71
2022/12/26 13:08:51;;;;;;;8.02;5.20;;;;;;;11.56;72.26;100835.53;5040377;28;20104;-72
2022/12/26 13:11:47;;;;;;;9.07;5.45;;;;;;;11.56;72.98;100842.63;5040249;28;20041;-72
2022/12/26 13:14:23;;;;;;;7.03;4.53;;;;;;;11.56;71.04;100832.03;5041174;28;20053;-72
2022/12/26 13:16:59;;;;;;;7.18;4.97;;;;;;;11.58;71.39;100827.41;5039968;28;20297;-72
2022/12/26 13:19:31;;;;;;;7.93;5.10;;;;;;;11.60;71.60;100826.31;5039597;28;20071;-72
2022/12/26 13:22:03;;;;;;;9.98;5.88;;;;;;;11.32;72.68;100822.66;5039260;28;20593;-72
2022/12/26 13:24:35;;;;;;;9.32;5.07;;;;;;;11.33;72.35;100815.56;5040336;28;20105;-71
2022/12/26 13:27:12;;;;;;;5.75;3.97;;;;;;;11.24;73.31;100821.69;5039162;28;20103;-72
2022/12/26 13:29:43;;;;;;;6.30;4.50;;;;;;;11.34;72.59;100818.06;5037888;28;20034;-72
2022/12/26 13:32:25;;;;;;;11.60;5.72;;;;;;;11.31;74.22;100815.69;5039057;28;20041;-73
2022/12/26 13:34:53;;;;;;;7.70;4.97;;;;;;;11.41;73.54;100818.34;5039442;28;20030;-72
2022/12/26 13:37:34;;;;;;;5.93;4.18;;;;;;;11.44;72.81;100821.56;5038146;28;20356;-72
2022/12/26 13:40:02;;;;;;;6.00;4.22;;;;;;;11.44;72.65;100824.22;5038130;28;20076;-71
2022/12/26 13:45:34;;;;;;;9.98;5.57;;;;;;;11.61;72.73;100827.13;5039266;28;20083;-72
2022/12/26 13:48:00;;;;;;;9.27;5.25;;;;;;;11.69;71.79;100821.94;5040595;28;20353;-72
2022/12/26 13:50:50;;;;;;;10.43;5.40;;;;;;;11.79;71.01;100828.09;5038439;28;20033;-72